Time;durP1;ratioP1;P1;durP2;ratioP2;P2;SDS_P1;SDS_P2;PMS_P1;PMS_P2;Temp;Humidity;BMP_temperature;BMP_pressure;BME280_temperature;BME280_humidity;BME280_pressure;Samples;Min_cycle;Max_cycle;Signal;HPM_P1;HPM_P2
2022/10/27 00:00:35;;;;;;;10.10;4.50;;;16.50;99.90;;;;;;5085058;28;20068;-80
2022/10/27 00:03:01;;;;;;;8.88;3.95;;;16.50;99.90;;;;;;5094736;28;20496;-80
2022/10/27 00:05:27;;;;;;;16.35;4.70;;;16.50;99.90;;;;;;5078314;28;20037;-80
2022/10/27 00:07:53;;;;;;;9.23;4.30;;;16.50;99.90;;;;;;5077181;28;20093;-80
2022/10/27 00:10:19;;;;;;;8.13;4.22;;;16.30;99.90;;;;;;5079002;28;20468;-80
2022/10/27 00:12:45;;;;;;;16.42;5.10;;;16.10;99.90;;;;;;5092043;28;20064;-80
2022/10/27 00:15:11;;;;;;;7.30;4.07;;;16.00;99.90;;;;;;5077382;28;20041;-80
2022/10/27 00:17:37;;;;;;;11.07;4.57;;;16.00;99.90;;;;;;5076778;28;20407;-80
2022/10/27 00:20:04;;;;;;;9.68;3.95;;;16.00;99.90;;;;;;5083398;28;20067;-80
2022/10/27 00:22:30;;;;;;;8.50;3.80;;;16.00;99.90;;;;;;5086707;28;20044;-80
2022/10/27 00:24:56;;;;;;;16.27;4.38;;;16.10;99.90;;;;;;5075586;28;20047;-80
2022/10/27 00:27:21;;;;;;;12.95;4.50;;;16.20;99.90;;;;;;5076611;28;20043;-80
2022/10/27 00:29:47;;;;;;;15.27;4.47;;;16.30;99.90;;;;;;5077059;28;20068;-80
2022/10/27 00:32:13;;;;;;;14.70;4.28;;;16.20;99.90;;;;;;5090283;28;20063;-80
2022/10/27 00:34:39;;;;;;;9.43;3.80;;;16.20;99.90;;;;;;5095501;28;20115;-80
2022/10/27 00:37:05;;;;;;;10.65;3.75;;;16.00;99.90;;;;;;5096836;28;20048;-80
2022/10/27 00:39:30;;;;;;;6.53;3.67;;;15.90;99.90;;;;;;5095118;28;20519;-80
2022/10/27 00:41:57;;;;;;;7.75;3.90;;;15.70;99.90;;;;;;5078925;28;20040;-80
2022/10/27 00:44:44;;;;;;;11.82;4.60;;;15.60;99.90;;;;;;5076647;28;20040;-80
2022/10/27 00:47:27;;;;;;;12.52;4.07;;;15.50;99.90;;;;;;5076449;28;20033;-80
2022/10/27 00:49:56;;;;;;;11.65;4.30;;;15.50;99.90;;;;;;5076433;28;20028;-80
2022/10/27 00:52:42;;;;;;;13.20;4.00;;;15.50;99.90;;;;;;5076228;28;20033;-80
2022/10/27 00:55:32;;;;;;;7.32;3.97;;;15.50;99.90;;;;;;5078551;28;20123;-80
2022/10/27 00:58:01;;;;;;;10.20;4.10;;;15.50;99.90;;;;;;5089969;28;20391;-79
2022/10/27 01:00:27;;;;;;;8.88;4.45;;;15.40;99.90;;;;;;5096421;28;20135;-79
2022/10/27 01:06:15;;;;;;;8.15;4.35;;;15.80;99.90;;;;;;5096257;28;20054;-80
2022/10/27 01:08:42;;;;;;;15.13;4.75;;;16.00;99.90;;;;;;5093225;28;20028;-80
2022/10/27 01:11:08;;;;;;;20.23;5.40;;;15.90;99.90;;;;;;5084324;28;20086;-80
2022/10/27 01:13:34;;;;;;;11.98;4.97;;;16.00;99.90;;;;;;5092269;28;20036;-80
2022/10/27 01:16:19;;;;;;;14.68;4.90;;;16.00;99.90;;;;;;5074586;28;20063;-80
2022/10/27 01:19:22;;;;;;;14.60;5.30;;;15.90;99.90;;;;;;5076201;28;20105;-80
2022/10/27 01:22:03;;;;;;;13.60;5.18;;;15.90;99.90;;;;;;5066139;28;20071;-80
2022/10/27 01:24:43;;;;;;;12.65;5.43;;;15.80;99.90;;;;;;5095966;28;20583;-80
2022/10/27 01:27:29;;;;;;;16.85;5.53;;;15.80;99.90;;;;;;5075306;28;20042;-80
2022/10/27 01:30:10;;;;;;;12.68;5.43;;;15.80;99.90;;;;;;5062206;28;20174;-80
2022/10/27 01:32:53;;;;;;;12.38;5.22;;;15.80;99.90;;;;;;5075717;28;20066;-80
2022/10/27 01:35:41;;;;;;;14.88;5.00;;;15.80;99.90;;;;;;5083555;28;20035;-80
2022/10/27 01:38:16;;;;;;;15.15;5.68;;;15.80;99.90;;;;;;5095283;28;20052;-80
2022/10/27 01:40:51;;;;;;;16.83;5.68;;;15.80;99.90;;;;;;5088231;28;20050;-80
2022/10/27 01:43:22;;;;;;;15.32;5.07;;;15.80;99.90;;;;;;5084802;28;20044;-80
2022/10/27 01:45:50;;;;;;;12.52;5.47;;;15.70;99.90;;;;;;5095334;28;20514;-80
2022/10/27 01:48:16;;;;;;;12.60;5.28;;;15.80;99.90;;;;;;5095170;28;20076;-80
2022/10/27 01:50:43;;;;;;;13.07;5.57;;;15.80;99.90;;;;;;5095247;28;20495;-80
2022/10/27 01:53:11;;;;;;;24.48;5.63;;;15.70;99.90;;;;;;5095010;28;20028;-80
2022/10/27 01:55:39;;;;;;;12.93;5.60;;;15.70;99.90;;;;;;5095721;28;20075;-80
2022/10/27 01:58:26;;;;;;;13.18;6.03;;;15.80;99.90;;;;;;5092617;28;20080;-80
2022/10/27 02:01:25;;;;;;;12.05;5.85;;;15.70;99.90;;;;;;5090337;28;20127;-80
2022/10/27 02:04:21;;;;;;;17.27;6.00;;;15.70;99.90;;;;;;5047961;28;20369;-80
2022/10/27 02:06:54;;;;;;;12.32;5.97;;;15.70;99.90;;;;;;5057828;28;20044;-80
2022/10/27 02:09:44;;;;;;;16.90;5.63;;;15.70;99.90;;;;;;5093829;28;20496;-80
2022/10/27 02:12:27;;;;;;;10.68;5.25;;;15.60;99.90;;;;;;5094951;28;20043;-80
2022/10/27 02:14:56;;;;;;;12.98;5.63;;;15.60;99.90;;;;;;5054532;28;20039;-80
2022/10/27 02:17:25;;;;;;;12.75;6.43;;;15.50;99.90;;;;;;5089648;28;20124;-80
2022/10/27 02:19:53;;;;;;;16.77;6.55;;;15.50;99.90;;;;;;5095216;28;20067;-80
2022/10/27 02:22:24;;;;;;;9.45;5.57;;;15.40;99.90;;;;;;5085303;28;20044;-80
2022/10/27 02:24:50;;;;;;;10.15;5.60;;;15.40;99.90;;;;;;5073435;28;20123;-79
2022/10/27 02:27:34;;;;;;;11.32;5.68;;;15.40;99.90;;;;;;5074146;28;20037;-80
2022/10/27 02:30:02;;;;;;;15.63;7.18;;;15.40;99.90;;;;;;5054988;28;20045;-80
2022/10/27 02:32:28;;;;;;;18.75;6.82;;;15.40;99.90;;;;;;5057674;28;20052;-80
2022/10/27 02:34:56;;;;;;;12.70;6.00;;;15.40;99.90;;;;;;5083557;28;20434;-80
2022/10/27 02:37:38;;;;;;;14.30;6.25;;;15.40;99.90;;;;;;5090517;28;20044;-80
2022/10/27 02:40:05;;;;;;;12.68;6.30;;;15.40;99.90;;;;;;5073839;28;20067;-80
2022/10/27 02:42:31;;;;;;;16.00;6.78;;;15.40;99.90;;;;;;5071566;28;20500;-80
2022/10/27 02:44:57;;;;;;;14.52;7.32;;;15.30;99.90;;;;;;5073440;28;20040;-80
2022/10/27 02:47:22;;;;;;;16.85;6.55;;;15.30;99.90;;;;;;5072219;28;20048;-80
2022/10/27 02:49:49;;;;;;;15.85;6.50;;;15.20;99.90;;;;;;5073320;28;20368;-80
2022/10/27 02:52:15;;;;;;;22.98;7.57;;;15.20;99.90;;;;;;5073538;28;20048;-80
2022/10/27 02:54:42;;;;;;;17.17;7.68;;;15.10;99.90;;;;;;5073042;28;20032;-80
2022/10/27 02:57:08;;;;;;;14.40;7.07;;;15.20;99.90;;;;;;5074673;28;20522;-79
2022/10/27 02:59:34;;;;;;;14.25;8.02;;;15.20;99.90;;;;;;5057071;28;20040;-79
2022/10/27 03:01:59;;;;;;;13.32;6.90;;;15.20;99.90;;;;;;5074381;28;20042;-79
2022/10/27 03:04:25;;;;;;;18.13;8.02;;;15.10;99.90;;;;;;5074600;28;20043;-80
2022/10/27 03:06:51;;;;;;;19.38;7.75;;;15.10;99.90;;;;;;5078849;28;20036;-79
2022/10/27 03:09:17;;;;;;;16.10;8.13;;;15.20;99.90;;;;;;5084573;28;20107;-80
2022/10/27 03:11:42;;;;;;;21.13;8.45;;;15.20;99.90;;;;;;5073440;28;20033;-80
2022/10/27 03:14:08;;;;;;;13.63;7.63;;;15.20;99.90;;;;;;5073037;28;20048;-79
2022/10/27 03:16:34;;;;;;;21.05;8.38;;;15.10;99.90;;;;;;5072949;28;20048;-80
2022/10/27 03:18:59;;;;;;;21.98;7.80;;;15.10;99.90;;;;;;5071209;28;20428;-79
2022/10/27 03:21:25;;;;;;;13.45;7.22;;;15.10;99.90;;;;;;5071690;28;20036;-79
2022/10/27 03:23:51;;;;;;;16.42;7.45;;;15.00;99.90;;;;;;5084467;28;20478;-79
2022/10/27 03:26:17;;;;;;;13.60;7.18;;;14.90;99.90;;;;;;5091904;28;20040;-79
2022/10/27 03:28:42;;;;;;;14.07;7.45;;;14.90;99.90;;;;;;5083627;28;20071;-79
2022/10/27 03:31:08;;;;;;;14.48;7.18;;;14.90;99.90;;;;;;5080438;28;20039;-79
2022/10/27 03:33:34;;;;;;;19.15;7.35;;;14.90;99.90;;;;;;5092766;28;20067;-80
2022/10/27 03:35:59;;;;;;;17.58;7.00;;;14.90;99.90;;;;;;5091679;28;20484;-79
2022/10/27 03:38:25;;;;;;;15.90;6.57;;;14.90;99.90;;;;;;5039050;28;1315571;-79
2022/10/27 03:40:51;;;;;;;14.32;7.68;;;14.90;99.90;;;;;;5078500;28;20484;-79
2022/10/27 03:43:17;;;;;;;17.25;7.80;;;14.80;99.90;;;;;;5093726;28;20499;-79
2022/10/27 03:45:46;;;;;;;19.77;8.63;;;14.80;99.90;;;;;;5093629;28;20119;-79
2022/10/27 03:48:11;;;;;;;14.90;7.97;;;14.80;99.90;;;;;;5079246;28;20531;-79
2022/10/27 03:50:38;;;;;;;16.83;8.13;;;14.80;99.90;;;;;;5093713;28;20059;-79
2022/10/27 03:53:05;;;;;;;15.55;7.57;;;14.80;99.90;;;;;;5075389;28;20082;-79
2022/10/27 03:55:31;;;;;;;17.88;8.70;;;14.80;99.90;;;;;;5073604;28;20040;-79
2022/10/27 03:57:58;;;;;;;16.33;8.77;;;14.80;99.90;;;;;;5082732;28;20073;-79
2022/10/27 04:00:24;;;;;;;19.90;8.30;;;14.80;99.90;;;;;;5093544;28;20042;-79
2022/10/27 04:02:53;;;;;;;16.50;9.45;;;14.80;99.90;;;;;;5093758;28;20395;-79
2022/10/27 04:05:20;;;;;;;24.88;9.27;;;14.80;99.90;;;;;;5093755;28;20032;-79
2022/10/27 04:07:46;;;;;;;27.20;9.45;;;14.80;99.90;;;;;;5092171;28;20119;-79
2022/10/27 04:10:12;;;;;;;23.20;9.52;;;14.90;99.90;;;;;;5093457;28;20051;-79
2022/10/27 04:12:38;;;;;;;19.63;8.82;;;14.90;99.90;;;;;;5093723;28;20032;-79
2022/10/27 04:15:04;;;;;;;23.75;9.90;;;14.80;99.90;;;;;;5093582;28;20379;-79
2022/10/27 04:17:30;;;;;;;20.00;9.32;;;14.60;99.90;;;;;;5093457;28;20048;-80
2022/10/27 04:19:56;;;;;;;23.10;9.48;;;14.40;99.90;;;;;;5093514;28;20400;-78
2022/10/27 04:22:22;;;;;;;17.58;8.73;;;14.30;99.90;;;;;;5093262;28;20036;-79
2022/10/27 04:24:47;;;;;;;14.13;7.55;;;14.30;99.90;;;;;;5093206;28;20394;-79
2022/10/27 04:27:13;;;;;;;14.60;7.95;;;14.30;99.90;;;;;;5093113;28;20040;-79
2022/10/27 04:29:39;;;;;;;16.17;8.43;;;14.40;99.90;;;;;;5093061;28;20383;-79
2022/10/27 04:32:04;;;;;;;23.35;10.20;;;14.50;99.90;;;;;;5093288;28;20083;-79
2022/10/27 04:34:30;;;;;;;20.85;9.25;;;14.50;99.90;;;;;;5093207;28;20039;-79
2022/10/27 04:36:56;;;;;;;20.17;8.80;;;14.50;99.90;;;;;;5093191;28;20092;-78
2022/10/27 04:39:22;;;;;;;19.00;8.00;;;14.50;99.90;;;;;;5095472;28;20526;-79
2022/10/27 04:41:47;;;;;;;19.73;9.43;;;14.40;99.90;;;;;;5095652;28;20127;-78
2022/10/27 04:44:13;;;;;;;19.05;8.00;;;14.50;99.90;;;;;;5096899;28;20035;-78
2022/10/27 04:46:39;;;;;;;15.48;6.75;;;14.50;99.90;;;;;;5096715;28;20040;-79
2022/10/27 04:49:05;;;;;;;16.20;7.13;;;14.40;99.90;;;;;;5096753;28;20036;-79
2022/10/27 04:51:30;;;;;;;24.38;8.48;;;14.40;99.90;;;;;;5096716;28;20079;-78
2022/10/27 04:53:56;;;;;;;13.27;7.45;;;14.40;99.90;;;;;;5096686;28;20035;-79
2022/10/27 04:56:22;;;;;;;14.73;7.75;;;14.40;99.90;;;;;;5096526;28;20058;-78
2022/10/27 04:58:47;;;;;;;23.23;8.50;;;14.30;99.90;;;;;;5096603;28;20212;-79
2022/10/27 05:01:14;;;;;;;28.48;7.63;;;14.30;99.90;;;;;;5096525;28;20042;-78
2022/10/27 05:03:40;;;;;;;27.27;7.85;;;14.00;99.90;;;;;;5096354;28;20040;-79
2022/10/27 05:06:06;;;;;;;13.68;6.82;;;13.70;99.90;;;;;;5096266;28;20510;-79
2022/10/27 05:08:32;;;;;;;18.58;6.68;;;13.60;99.90;;;;;;5095000;28;20036;-79
2022/10/27 05:10:58;;;;;;;13.23;7.20;;;13.60;99.90;;;;;;5094989;28;20047;-80
2022/10/27 05:13:23;;;;;;;13.25;7.07;;;13.60;99.90;;;;;;5095852;28;20438;-78
2022/10/27 05:15:49;;;;;;;13.60;7.63;;;13.70;99.90;;;;;;5095138;28;20462;-79
2022/10/27 05:18:15;;;;;;;21.75;7.95;;;13.70;99.90;;;;;;5095725;28;20097;-79
2022/10/27 05:20:41;;;;;;;18.02;8.10;;;13.60;99.90;;;;;;5094816;28;20039;-79
2022/10/27 05:23:06;;;;;;;15.57;7.45;;;13.90;99.90;;;;;;5094793;28;20105;-79
2022/10/27 05:25:32;;;;;;;15.52;7.22;;;13.90;99.90;;;;;;5096073;28;20068;-78
2022/10/27 05:28:10;;;;;;;15.68;7.25;;;13.80;99.90;;;;;;5095972;28;20057;-78
2022/10/27 05:30:36;;;;;;;16.80;7.03;;;13.80;99.90;;;;;;5096085;28;20410;-78
2022/10/27 05:33:02;;;;;;;12.98;6.88;;;13.50;99.90;;;;;;5095936;28;20032;-78
2022/10/27 05:35:28;;;;;;;26.13;8.45;;;13.50;99.90;;;;;;5095960;28;20071;-78
2022/10/27 05:37:54;;;;;;;21.20;7.78;;;13.90;99.90;;;;;;5095546;28;20110;-78
2022/10/27 05:40:20;;;;;;;19.63;8.38;;;14.00;99.90;;;;;;5094450;28;20529;-79
2022/10/27 05:42:53;;;;;;;24.75;8.38;;;14.10;99.90;;;;;;5095603;28;20043;-79
2022/10/27 05:45:20;;;;;;;15.95;7.68;;;14.20;99.90;;;;;;5095548;28;20123;-78
2022/10/27 05:47:46;;;;;;;17.20;8.73;;;14.30;99.90;;;;;;5094085;28;20515;-78
2022/10/27 05:50:12;;;;;;;21.02;9.43;;;14.20;99.90;;;;;;5094392;28;20040;-77
2022/10/27 05:52:38;;;;;;;24.55;8.48;;;14.20;99.90;;;;;;5095623;28;20117;-77
2022/10/27 05:55:04;;;;;;;18.73;10.25;;;14.30;99.90;;;;;;5075722;28;20068;-77
2022/10/27 05:57:30;;;;;;;21.77;10.38;;;14.30;99.90;;;;;;5074868;28;20079;-77
2022/10/27 05:59:56;;;;;;;22.90;10.88;;;14.30;99.90;;;;;;5073690;28;20566;-77
2022/10/27 06:02:21;;;;;;;23.42;11.55;;;14.30;99.90;;;;;;5075040;28;20059;-78
2022/10/27 06:04:47;;;;;;;21.10;11.00;;;14.30;99.90;;;;;;5073672;28;20131;-77
2022/10/27 06:07:13;;;;;;;27.27;12.63;;;14.30;99.90;;;;;;5075101;28;20128;-77
2022/10/27 06:09:39;;;;;;;29.38;12.73;;;14.30;99.90;;;;;;5073230;28;20098;-77
2022/10/27 06:12:04;;;;;;;28.67;12.18;;;14.30;99.90;;;;;;5073665;28;20488;-78
2022/10/27 06:14:30;;;;;;;27.67;12.10;;;14.20;99.90;;;;;;5074710;28;20041;-77
2022/10/27 06:16:56;;;;;;;32.38;12.35;;;14.30;99.90;;;;;;5074758;28;20377;-77
2022/10/27 06:19:22;;;;;;;24.55;12.55;;;14.30;99.90;;;;;;5074735;28;20472;-77
2022/10/27 06:21:47;;;;;;;27.73;12.32;;;14.30;99.90;;;;;;5074569;28;20504;-77
2022/10/27 06:24:13;;;;;;;17.92;11.23;;;14.30;99.90;;;;;;5073193;28;20071;-77
2022/10/27 06:26:39;;;;;;;22.13;11.55;;;14.30;99.90;;;;;;5073764;28;20391;-77
2022/10/27 06:29:04;;;;;;;24.55;11.23;;;14.30;99.90;;;;;;5074021;28;20492;-77
2022/10/27 06:31:30;;;;;;;27.38;12.15;;;14.30;99.90;;;;;;5073851;28;20025;-77
2022/10/27 06:33:56;;;;;;;22.25;11.57;;;14.30;99.90;;;;;;5074077;28;20092;-77
2022/10/27 06:36:22;;;;;;;20.52;11.20;;;14.30;99.90;;;;;;5074195;28;20396;-77
2022/10/27 06:38:47;;;;;;;20.60;10.57;;;14.30;99.90;;;;;;5074104;28;20040;-77
2022/10/27 06:41:13;;;;;;;21.40;10.95;;;14.20;99.90;;;;;;5074220;28;20512;-77
2022/10/27 06:43:39;;;;;;;21.60;10.48;;;14.10;99.90;;;;;;5073147;28;20041;-77
2022/10/27 06:46:05;;;;;;;17.63;9.20;;;14.10;99.90;;;;;;5072966;28;20032;-77
2022/10/27 06:48:30;;;;;;;18.88;9.18;;;14.10;99.90;;;;;;5074246;28;20067;-77
2022/10/27 06:50:56;;;;;;;19.13;9.23;;;14.10;99.90;;;;;;5074133;28;20078;-77
2022/10/27 06:53:22;;;;;;;17.25;9.20;;;14.30;99.90;;;;;;5074149;28;20036;-77
2022/10/27 06:55:48;;;;;;;16.30;9.15;;;14.40;99.90;;;;;;5072802;28;20442;-77
2022/10/27 06:58:13;;;;;;;17.23;9.82;;;14.30;99.90;;;;;;5074143;28;20040;-78
2022/10/27 07:00:39;;;;;;;19.65;10.23;;;14.50;99.90;;;;;;5073647;28;20048;-78
2022/10/27 07:03:08;;;;;;;27.35;10.43;;;14.60;99.90;;;;;;5072750;28;20046;-78
2022/10/27 07:05:35;;;;;;;17.50;10.15;;;14.80;99.90;;;;;;5074222;28;20479;-78
2022/10/27 07:08:01;;;;;;;18.65;9.25;;;15.00;99.90;;;;;;5074023;28;20068;-78
2022/10/27 07:10:27;;;;;;;22.02;9.70;;;15.20;99.90;;;;;;5072868;28;20075;-78
2022/10/27 07:12:53;;;;;;;20.85;8.75;;;;;;;;;;5073946;28;20052;-78
2022/10/27 07:15:19;;;;;;;16.00;9.88;;;15.50;99.90;;;;;;5073948;28;20040;-77
2022/10/27 07:17:44;;;;;;;22.63;9.73;;;15.20;99.90;;;;;;5073965;28;20060;-77
2022/10/27 07:20:10;;;;;;;25.23;10.23;;;15.00;99.90;;;;;;5074007;28;20036;-77
2022/10/27 07:22:39;;;;;;;16.60;8.65;;;14.90;99.90;;;;;;5073885;28;20098;-78
2022/10/27 07:25:06;;;;;;;20.63;8.60;;;15.10;99.90;;;;;;5072631;28;20025;-78
2022/10/27 07:27:32;;;;;;;16.38;8.77;;;;;;;;;;5072554;28;20043;-77
2022/10/27 07:29:58;;;;;;;13.93;6.95;;;16.00;99.90;;;;;;5073896;28;20055;-77
2022/10/27 07:32:24;;;;;;;14.88;7.53;;;16.30;99.90;;;;;;5073752;28;20131;-78
2022/10/27 07:34:50;;;;;;;14.77;6.97;;;16.50;99.90;;;;;;5073875;28;20446;-77
2022/10/27 07:37:15;;;;;;;13.40;6.88;;;16.80;99.90;;;;;;5072065;28;20044;-78
2022/10/27 07:39:41;;;;;;;19.70;7.38;;;16.80;99.90;;;;;;5072254;28;20035;-77
2022/10/27 07:42:07;;;;;;;14.23;6.45;;;17.10;99.90;;;;;;5073539;28;20464;-78
2022/10/27 07:44:33;;;;;;;17.92;6.95;;;17.10;99.90;;;;;;5073275;28;20120;-77
2022/10/27 07:46:58;;;;;;;12.88;5.82;;;17.20;99.90;;;;;;5071994;28;20036;-77
2022/10/27 07:49:24;;;;;;;11.15;5.45;;;17.20;99.90;;;;;;5071998;28;20131;-77
2022/10/27 07:51:50;;;;;;;16.42;6.50;;;17.30;99.90;;;;;;5073125;28;20040;-78
2022/10/27 07:54:17;;;;;;;12.73;6.80;;;17.30;99.90;;;;;;5073564;28;20500;-77
2022/10/27 07:56:42;;;;;;;17.88;6.20;;;17.30;99.90;;;;;;5073594;28;20041;-77
2022/10/27 07:59:08;;;;;;;16.35;6.15;;;17.40;99.90;;;;;;5071659;28;20461;-78
2022/10/27 08:01:34;;;;;;;20.17;6.85;;;17.70;99.90;;;;;;5073517;28;20040;-77
2022/10/27 08:03:59;;;;;;;13.00;6.93;;;17.70;99.90;;;;;;5071951;28;20070;-78
2022/10/27 08:06:25;;;;;;;16.35;7.05;;;17.90;99.90;;;;;;5073208;28;20404;-78
2022/10/27 08:08:51;;;;;;;14.50;6.40;;;18.00;99.90;;;;;;5073092;28;20051;-77
2022/10/27 08:11:16;;;;;;;14.27;6.10;;;18.30;99.90;;;;;;5073186;28;20044;-78
2022/10/27 08:13:42;;;;;;;18.55;7.05;;;18.40;99.90;;;;;;5076317;28;21074;-79
2022/10/27 08:16:08;;;;;;;11.15;6.20;;;;;;;;;;5075792;28;20128;-80
2022/10/27 08:18:34;;;;;;;13.32;6.60;;;18.50;99.90;;;;;;5077056;28;20054;-78
2022/10/27 08:21:03;;;;;;;14.90;7.43;;;18.70;99.90;;;;;;5076803;28;20470;-78
2022/10/27 08:23:28;;;;;;;15.23;6.78;;;18.70;99.90;;;;;;5076786;28;20040;-78
2022/10/27 08:25:55;;;;;;;11.80;6.22;;;18.90;99.90;;;;;;5076859;28;20036;-78
2022/10/27 08:28:23;;;;;;;15.88;7.35;;;19.00;99.90;;;;;;5076890;28;20045;-78
2022/10/27 08:30:51;;;;;;;15.93;6.32;;;18.60;99.90;;;;;;5077028;28;20124;-78
2022/10/27 08:33:17;;;;;;;12.43;6.65;;;18.70;99.90;;;;;;5075456;28;20110;-78
2022/10/27 08:35:43;;;;;;;14.13;6.60;;;18.80;99.90;;;;;;5076640;28;20052;-78
2022/10/27 08:38:12;;;;;;;19.27;6.72;;;18.80;99.90;;;;;;5076562;28;20516;-79
2022/10/27 08:40:59;;;;;;;10.55;5.93;;;18.90;99.90;;;;;;5076871;28;20060;-78
2022/10/27 08:43:48;;;;;;;20.77;6.95;;;19.20;99.90;;;;;;5075285;28;20040;-80
2022/10/27 08:46:33;;;;;;;14.88;5.78;;;19.00;99.90;;;;;;5076604;28;20037;-78
2022/10/27 08:49:05;;;;;;;10.75;5.97;;;19.30;99.90;;;;;;5070277;28;20484;-78
2022/10/27 08:51:33;;;;;;;13.48;6.32;;;19.10;99.90;;;;;;5076571;28;20032;-79
2022/10/27 08:53:59;;;;;;;14.68;6.10;;;19.40;99.90;;;;;;5054177;28;20037;-78
2022/10/27 08:56:31;;;;;;;11.63;5.72;;;19.40;99.90;;;;;;5055863;28;20393;-80
2022/10/27 08:58:57;;;;;;;19.35;6.85;;;19.40;99.90;;;;;;5053955;28;20047;-77
2022/10/27 09:01:42;;;;;;;18.10;6.88;;;19.30;99.90;;;;;;5054161;28;20033;-79
2022/10/27 09:04:43;;;;;;;11.88;6.80;;;19.40;99.90;;;;;;5053808;28;20079;-79
2022/10/27 09:07:14;;;;;;;10.95;6.55;;;19.20;99.90;;;;;;5042718;28;20037;-79
2022/10/27 09:09:58;;;;;;;15.43;7.75;;;19.30;99.90;;;;;;5054108;28;20071;-79
2022/10/27 09:12:40;;;;;;;20.67;9.00;;;19.50;99.90;;;;;;5069423;28;20102;-80
2022/10/27 09:15:27;;;;;;;16.55;8.48;;;19.40;99.90;;;;;;5075611;28;20039;-77
2022/10/27 09:17:59;;;;;;;25.70;8.25;;;19.60;99.90;;;;;;5073592;28;20083;-79
2022/10/27 09:20:40;;;;;;;13.52;7.60;;;19.90;99.90;;;;;;5072706;28;20028;-82
2022/10/27 09:23:14;;;;;;;20.52;8.25;;;20.10;99.90;;;;;;5074457;28;20106;-82
2022/10/27 09:25:41;;;;;;;18.52;7.63;;;20.10;99.90;;;;;;5075508;28;20047;-82
2022/10/27 09:28:21;;;;;;;15.43;8.27;;;20.10;99.90;;;;;;5074131;28;20051;-78
2022/10/27 09:30:50;;;;;;;13.80;7.35;;;19.80;99.90;;;;;;5074177;28;20032;-79
2022/10/27 09:33:20;;;;;;;15.85;7.65;;;19.60;99.90;;;;;;5073956;28;20045;-78
2022/10/27 09:35:46;;;;;;;18.85;8.18;;;19.50;99.90;;;;;;5072096;28;20075;-78
2022/10/27 09:38:20;;;;;;;13.13;7.65;;;20.00;99.90;;;;;;5074792;28;20051;-78
2022/10/27 09:40:45;;;;;;;13.20;8.10;;;20.00;99.90;;;;;;5073259;28;20044;-78
2022/10/27 09:43:11;;;;;;;19.50;9.05;;;20.20;99.90;;;;;;5073744;28;20037;-78
2022/10/27 09:45:37;;;;;;;14.25;8.25;;;20.10;99.90;;;;;;5071999;28;20437;-78
2022/10/27 09:48:06;;;;;;;16.88;8.88;;;19.90;99.90;;;;;;5072871;28;20059;-79
2022/10/27 09:51:11;;;;;;;17.98;7.18;;;19.90;99.90;;;;;;5072749;28;20127;-78
2022/10/27 09:53:53;;;;;;;16.63;6.45;;;19.80;99.90;;;;;;5073861;28;20048;-78
2022/10/27 09:56:32;;;;;;;9.38;5.32;;;19.90;99.90;;;;;;5074029;28;20090;-77
2022/10/27 09:59:01;;;;;;;17.23;6.68;;;19.70;99.90;;;;;;5072229;28;20123;-76
2022/10/27 10:01:39;;;;;;;17.60;7.50;;;19.80;99.90;;;;;;5073486;28;20578;-76
2022/10/27 10:04:14;;;;;;;12.25;5.35;;;20.20;99.90;;;;;;5073612;28;20515;-76
2022/10/27 10:06:40;;;;;;;10.35;4.88;;;20.20;99.90;;;;;;5074829;28;20040;-77
2022/10/27 10:09:21;;;;;;;14.23;6.22;;;20.60;99.90;;;;;;5075034;28;20220;-77
2022/10/27 10:11:47;;;;;;;15.05;6.25;;;20.40;99.90;;;;;;5074880;28;20043;-77
2022/10/27 10:14:21;;;;;;;12.35;6.38;;;20.40;99.90;;;;;;5073463;28;20439;-78
2022/10/27 10:16:48;;;;;;;11.68;5.75;;;20.30;99.90;;;;;;5074594;28;20067;-77
2022/10/27 10:19:20;;;;;;;10.85;5.10;;;20.30;99.90;;;;;;5074883;28;20048;-77
2022/10/27 10:21:48;;;;;;;11.32;5.68;;;20.20;99.90;;;;;;5073396;28;20033;-76
2022/10/27 10:24:26;;;;;;;17.20;6.50;;;20.40;99.90;;;;;;5074780;28;20048;-77
2022/10/27 10:26:57;;;;;;;20.00;8.07;;;20.40;99.90;;;;;;5073475;28;20072;-77
2022/10/27 10:29:29;;;;;;;21.20;8.93;;;20.20;99.90;;;;;;5073296;28;20051;-77
2022/10/27 10:32:17;;;;;;;16.73;9.00;;;19.80;99.90;;;;;;5072002;28;20106;-77
2022/10/27 10:34:43;;;;;;;16.05;8.18;;;19.90;99.90;;;;;;5054009;28;20068;-77
2022/10/27 10:37:38;;;;;;;20.77;8.38;;;19.70;99.90;;;;;;5052720;28;20505;-79
2022/10/27 10:40:12;;;;;;;16.55;8.57;;;19.60;99.90;;;;;;5054441;28;20045;-76
2022/10/27 10:42:38;;;;;;;21.08;9.63;;;19.60;99.90;;;;;;5053093;28;20041;-76
2022/10/27 10:45:13;;;;;;;23.08;10.15;;;19.60;99.90;;;;;;5054513;28;20033;-77
2022/10/27 10:47:39;;;;;;;18.20;9.32;;;;;;;;;;5054335;28;20409;-76
2022/10/27 10:50:12;;;;;;;19.05;10.23;;;19.20;99.90;;;;;;5052841;28;20040;-76
2022/10/27 10:52:39;;;;;;;21.48;10.65;;;19.30;99.90;;;;;;5054069;28;20094;-76
2022/10/27 10:55:27;;;;;;;18.73;8.88;;;19.20;99.90;;;;;;5054005;28;20060;-76
2022/10/27 10:57:54;;;;;;;25.35;10.73;;;19.30;99.90;;;;;;5052747;28;20048;-76
2022/10/27 11:00:21;;;;;;;17.70;8.70;;;19.40;99.90;;;;;;5053902;28;20041;-77
2022/10/27 11:03:12;;;;;;;20.30;9.80;;;19.40;99.90;;;;;;5065243;28;20045;-75
2022/10/27 11:05:40;;;;;;;19.27;9.30;;;19.40;99.90;;;;;;5053894;28;20124;-81
2022/10/27 11:08:19;;;;;;;19.85;9.20;;;19.50;99.90;;;;;;5054015;28;20500;-74
2022/10/27 11:10:46;;;;;;;18.80;9.52;;;19.60;99.90;;;;;;5052109;28;20090;-76
2022/10/27 11:13:20;;;;;;;26.90;10.13;;;19.60;99.90;;;;;;5053585;28;20056;-76
2022/10/27 11:16:10;;;;;;;22.75;10.70;;;19.80;99.90;;;;;;5052311;28;20041;-77
2022/10/27 11:18:51;;;;;;;17.05;8.90;;;19.90;99.90;;;;;;5051999;28;20401;-77
2022/10/27 11:21:35;;;;;;;21.27;9.93;;;19.80;99.90;;;;;;5050280;28;20044;-77
2022/10/27 11:24:19;;;;;;;19.75;9.52;;;19.70;99.90;;;;;;5051510;28;20432;-81
2022/10/27 11:27:16;;;;;;;21.63;10.98;;;19.70;99.90;;;;;;5050447;28;20470;-77
2022/10/27 11:30:08;;;;;;;19.50;9.95;;;19.80;99.90;;;;;;5051692;28;20025;-77
2022/10/27 11:32:42;;;;;;;19.10;9.63;;;19.70;99.90;;;;;;5052628;28;20175;-77
2022/10/27 11:35:22;;;;;;;20.08;9.52;;;19.60;99.90;;;;;;5053579;28;20064;-76
2022/10/27 11:38:15;;;;;;;13.13;8.23;;;19.70;99.90;;;;;;5052145;28;20532;-75
2022/10/27 11:40:54;;;;;;;12.75;7.07;;;19.70;99.90;;;;;;5051519;28;20040;-76
2022/10/27 11:43:38;;;;;;;19.95;8.88;;;19.70;99.90;;;;;;5051443;28;20045;-76
2022/10/27 11:46:16;;;;;;;16.55;8.18;;;19.80;99.90;;;;;;5049971;28;20391;-76
2022/10/27 11:48:48;;;;;;;16.75;8.23;;;19.90;99.90;;;;;;5054628;28;20393;-78
2022/10/27 11:51:17;;;;;;;18.58;7.95;;;20.20;99.90;;;;;;5055744;28;20083;-79
2022/10/27 11:53:43;;;;;;;22.52;8.45;;;20.40;99.90;;;;;;5055490;28;20052;-80
2022/10/27 11:56:20;;;;;;;15.43;7.82;;;20.50;99.90;;;;;;5055758;28;20045;-77
2022/10/27 11:58:57;;;;;;;16.83;6.93;;;20.20;99.90;;;;;;5057335;28;20053;-77
2022/10/27 12:01:51;;;;;;;18.70;8.45;;;20.10;99.90;;;;;;5057297;28;20041;-77
2022/10/27 12:04:37;;;;;;;18.38;6.95;;;20.30;99.90;;;;;;5053811;28;20053;-81
2022/10/27 12:07:16;;;;;;;12.68;6.72;;;20.30;99.90;;;;;;5055814;28;20076;-78
2022/10/27 12:10:03;;;;;;;16.80;6.90;;;20.30;99.90;;;;;;5056759;28;20064;-78
2022/10/27 12:12:49;;;;;;;16.17;7.10;;;20.30;99.90;;;;;;5057011;28;20032;-76
2022/10/27 12:15:14;;;;;;;14.50;6.75;;;20.20;99.90;;;;;;5055349;28;20037;-77
2022/10/27 12:17:49;;;;;;;14.90;6.60;;;20.10;99.90;;;;;;5055235;28;20060;-77
2022/10/27 12:20:23;;;;;;;11.90;6.13;;;20.00;99.90;;;;;;5054967;28;20087;-75
2022/10/27 12:22:55;;;;;;;15.95;6.93;;;20.10;99.90;;;;;;5055244;28;20083;-76
2022/10/27 12:25:32;;;;;;;15.73;7.22;;;20.20;99.90;;;;;;5056881;28;20047;-78
2022/10/27 12:28:02;;;;;;;14.02;6.88;;;20.30;99.90;;;;;;5060839;28;20050;-80
2022/10/27 12:30:28;;;;;;;13.07;6.90;;;20.30;99.90;;;;;;5074361;28;20024;-80
2022/10/27 12:33:08;;;;;;;17.40;7.60;;;20.50;99.90;;;;;;5075884;28;20044;-78
2022/10/27 12:35:49;;;;;;;16.13;7.38;;;20.50;99.90;;;;;;5075057;28;20481;-78
2022/10/27 12:38:48;;;;;;;16.42;6.70;;;20.50;99.90;;;;;;5073885;28;20049;-78
2022/10/27 12:41:22;;;;;;;18.45;7.53;;;20.50;99.90;;;;;;5074491;28;20060;-78
2022/10/27 12:44:06;;;;;;;19.13;8.05;;;20.40;99.90;;;;;;5074163;28;20136;-78
2022/10/27 12:46:53;;;;;;;24.73;8.52;;;20.20;99.90;;;;;;5074516;28;20043;-80
2022/10/27 12:49:19;;;;;;;18.70;7.80;;;20.10;99.90;;;;;;5074047;28;20064;-80
2022/10/27 12:51:57;;;;;;;16.33;7.60;;;20.10;99.90;;;;;;5076094;28;20044;-79
2022/10/27 12:54:32;;;;;;;13.68;7.18;;;20.00;99.90;;;;;;5074723;28;20028;-78
2022/10/27 12:57:42;;;;;;;13.05;7.50;;;19.70;99.90;;;;;;5074030;28;20431;-77
2022/10/27 13:00:16;;;;;;;16.67;8.30;;;19.80;99.90;;;;;;5069371;28;20047;-77